Time;durP1;ratioP1;P1;durP2;ratioP2;P2;SDS_P1;SDS_P2;PMS_P1;PMS_P2;Temp;Humidity;BMP_temperature;BMP_pressure;BME280_temperature;BME280_humidity;BME280_pressure;Samples;Min_cycle;Max_cycle;Signal;HPM_P1;HPM_P2
2023/09/29 00:00:52;;;;;;;23.52;8.57;;;15.40;99.90;;;;;;5093357;28;20043;-80
2023/09/29 00:03:19;;;;;;;26.88;8.70;;;15.50;99.90;;;;;;5093595;28;20082;-80
2023/09/29 00:05:44;;;;;;;31.77;8.77;;;15.50;99.90;;;;;;5093311;28;20058;-80
2023/09/29 00:08:16;;;;;;;29.13;9.65;;;15.50;99.90;;;;;;5093319;28;20047;-79
2023/09/29 00:10:42;;;;;;;28.52;8.48;;;15.50;99.90;;;;;;5094996;28;20040;-80
2023/09/29 00:13:07;;;;;;;21.58;8.27;;;15.60;99.90;;;;;;5093901;28;20046;-80
2023/09/29 00:15:33;;;;;;;22.15;8.75;;;15.60;99.90;;;;;;5093065;28;20391;-80
2023/09/29 00:18:00;;;;;;;24.20;8.50;;;15.60;99.90;;;;;;5094143;28;20125;-79
2023/09/29 00:20:26;;;;;;;30.02;9.68;;;15.50;99.90;;;;;;5093200;28;20127;-80
2023/09/29 00:22:52;;;;;;;25.52;8.25;;;15.60;99.90;;;;;;5093306;28;20124;-79
2023/09/29 00:25:19;;;;;;;22.05;8.02;;;15.60;99.90;;;;;;5092745;28;20052;-79
2023/09/29 00:27:45;;;;;;;23.83;7.93;;;15.60;99.90;;;;;;5093162;28;20044;-80
2023/09/29 00:30:12;;;;;;;22.58;7.90;;;15.60;99.90;;;;;;5093108;28;20052;-80
2023/09/29 00:32:43;;;;;;;29.45;9.35;;;15.60;99.90;;;;;;5093215;28;20063;-80
2023/09/29 00:35:17;;;;;;;24.55;8.20;;;15.60;99.90;;;;;;5093187;28;20050;-79
2023/09/29 00:37:44;;;;;;;25.52;9.05;;;15.60;99.90;;;;;;5092703;28;20051;-80
2023/09/29 00:40:14;;;;;;;24.00;8.18;;;15.60;99.90;;;;;;5092713;28;20454;-80
2023/09/29 00:42:42;;;;;;;22.15;8.65;;;15.60;99.90;;;;;;5092746;28;20040;-80
2023/09/29 00:45:09;;;;;;;26.15;8.30;;;15.60;99.90;;;;;;5092711;28;20048;-80
2023/09/29 00:47:36;;;;;;;22.48;8.07;;;15.60;99.90;;;;;;5092633;28;20052;-80
2023/09/29 00:50:05;;;;;;;21.58;8.77;;;15.60;99.90;;;;;;5092417;28;20048;-80
2023/09/29 00:52:32;;;;;;;25.00;8.93;;;15.60;99.90;;;;;;5092503;28;20127;-80
2023/09/29 00:54:58;;;;;;;22.30;9.07;;;15.50;99.90;;;;;;5093942;28;20044;-80
2023/09/29 00:57:24;;;;;;;27.35;9.63;;;15.50;99.90;;;;;;5092390;28;20040;-80
2023/09/29 00:59:51;;;;;;;26.13;9.55;;;15.50;99.90;;;;;;5093724;28;20048;-80
2023/09/29 01:02:18;;;;;;;23.88;8.95;;;15.50;99.90;;;;;;5092279;28;20123;-80
2023/09/29 01:04:48;;;;;;;23.60;9.45;;;15.50;99.90;;;;;;5092432;28;20072;-79
2023/09/29 01:07:15;;;;;;;23.35;7.95;;;15.40;99.90;;;;;;5093801;28;20047;-80
2023/09/29 01:09:41;;;;;;;25.50;8.82;;;15.40;99.90;;;;;;5093583;28;20511;-80
2023/09/29 01:12:10;;;;;;;27.98;10.02;;;15.40;99.90;;;;;;5092629;28;20052;-80
2023/09/29 01:14:35;;;;;;;30.55;8.77;;;15.40;99.90;;;;;;5092644;28;20540;-80
2023/09/29 01:17:01;;;;;;;21.50;8.45;;;15.40;99.90;;;;;;5093579;28;20040;-80
2023/09/29 01:19:27;;;;;;;25.27;8.57;;;15.40;99.90;;;;;;5091942;28;20052;-80
2023/09/29 01:21:55;;;;;;;19.83;7.10;;;15.50;99.90;;;;;;5093373;28;20130;-80
2023/09/29 01:24:22;;;;;;;22.75;8.80;;;15.40;99.90;;;;;;5093520;28;20040;-80
2023/09/29 01:26:48;;;;;;;27.75;8.20;;;15.40;99.90;;;;;;5093682;28;20087;-80
2023/09/29 01:29:15;;;;;;;25.27;7.55;;;15.40;99.90;;;;;;5093407;28;20062;-79
2023/09/29 01:31:41;;;;;;;21.95;7.90;;;15.40;99.90;;;;;;5092963;28;20093;-79
2023/09/29 01:34:07;;;;;;;25.38;8.45;;;15.40;99.90;;;;;;5094821;28;20043;-80
2023/09/29 01:36:33;;;;;;;24.67;7.43;;;15.50;99.90;;;;;;5096129;28;20373;-80
2023/09/29 01:38:59;;;;;;;26.95;7.68;;;15.50;99.90;;;;;;5096169;28;20090;-80
2023/09/29 01:41:25;;;;;;;19.75;6.75;;;15.40;99.90;;;;;;5096165;28;20052;-80
2023/09/29 01:43:50;;;;;;;24.13;8.13;;;15.40;99.90;;;;;;5095982;28;20085;-80
2023/09/29 01:46:16;;;;;;;20.23;7.22;;;15.40;99.90;;;;;;5097046;28;20044;-80
2023/09/29 01:48:42;;;;;;;17.30;7.80;;;15.40;99.90;;;;;;5097309;28;20411;-80
2023/09/29 01:51:08;;;;;;;23.73;7.18;;;15.50;99.90;;;;;;5096055;28;20094;-80
2023/09/29 01:53:34;;;;;;;29.25;8.10;;;15.40;99.90;;;;;;5096122;28;20080;-80
2023/09/29 01:55:59;;;;;;;22.65;7.20;;;15.40;99.90;;;;;;5097062;28;20089;-80
2023/09/29 01:58:29;;;;;;;20.35;6.45;;;15.40;99.90;;;;;;5095761;28;20048;-79
2023/09/29 02:00:54;;;;;;;21.85;6.13;;;15.50;99.90;;;;;;5095811;28;20126;-80
2023/09/29 02:03:20;;;;;;;23.42;6.72;;;15.50;99.90;;;;;;5095855;28;20432;-80
2023/09/29 02:05:46;;;;;;;17.55;7.47;;;15.50;99.90;;;;;;5095520;28;20100;-80
2023/09/29 02:08:12;;;;;;;22.88;5.75;;;15.50;99.90;;;;;;5095829;28;20044;-79
2023/09/29 02:10:38;;;;;;;22.05;5.80;;;15.50;99.90;;;;;;5096958;28;20046;-79
2023/09/29 02:13:04;;;;;;;21.05;6.07;;;15.50;99.90;;;;;;5095904;28;20047;-80
2023/09/29 02:15:34;;;;;;;21.38;6.50;;;15.50;99.90;;;;;;5096600;28;20051;-80
2023/09/29 02:18:04;;;;;;;16.98;6.38;;;15.50;99.90;;;;;;5095565;28;20076;-80
2023/09/29 02:20:30;;;;;;;20.33;6.90;;;15.50;99.90;;;;;;5095445;28;20056;-80
2023/09/29 02:23:02;;;;;;;26.05;6.70;;;15.50;99.90;;;;;;5095624;28;20059;-80
2023/09/29 02:25:29;;;;;;;23.63;7.13;;;15.50;99.90;;;;;;5095336;28;20052;-80
2023/09/29 02:27:56;;;;;;;20.13;6.30;;;15.60;99.90;;;;;;5096492;28;20050;-79
2023/09/29 02:30:24;;;;;;;19.60;5.72;;;15.60;99.90;;;;;;5095399;28;20157;-79
2023/09/29 02:32:53;;;;;;;18.25;5.90;;;15.60;99.90;;;;;;5095347;28;20094;-80
2023/09/29 02:35:19;;;;;;;20.33;6.75;;;15.60;99.90;;;;;;5095060;28;20050;-80
2023/09/29 02:37:47;;;;;;;22.13;6.13;;;15.60;99.90;;;;;;5096296;28;20483;-80
2023/09/29 02:40:14;;;;;;;19.08;6.22;;;15.60;99.90;;;;;;5096089;28;20040;-79
2023/09/29 02:42:41;;;;;;;22.67;6.18;;;15.60;99.90;;;;;;5096319;28;20048;-80
2023/09/29 02:45:08;;;;;;;17.70;6.03;;;15.70;99.90;;;;;;5093946;28;20044;-79
2023/09/29 02:47:35;;;;;;;19.35;6.35;;;15.60;99.90;;;;;;5094843;28;20051;-79
2023/09/29 02:50:04;;;;;;;20.75;5.55;;;15.60;99.90;;;;;;5096225;28;20036;-80
2023/09/29 02:52:30;;;;;;;23.02;6.13;;;15.70;99.90;;;;;;5094883;28;20056;-80
2023/09/29 02:54:55;;;;;;;16.95;6.22;;;15.70;99.90;;;;;;5094786;28;20094;-80
2023/09/29 02:57:22;;;;;;;18.27;6.20;;;15.70;99.90;;;;;;5095820;28;20105;-80
2023/09/29 02:59:48;;;;;;;13.80;6.07;;;15.70;99.90;;;;;;5094847;28;20479;-80
2023/09/29 03:02:14;;;;;;;19.92;5.72;;;15.70;99.90;;;;;;5095829;28;20048;-80
2023/09/29 03:04:40;;;;;;;22.45;6.45;;;15.70;99.90;;;;;;5094621;28;20116;-79
2023/09/29 03:07:09;;;;;;;22.63;6.75;;;15.70;99.90;;;;;;5094849;28;20048;-80
2023/09/29 03:09:38;;;;;;;19.10;5.80;;;15.70;99.90;;;;;;5095788;28;20428;-80
2023/09/29 03:12:04;;;;;;;18.42;5.40;;;15.70;99.90;;;;;;5094592;28;20128;-80
2023/09/29 03:14:30;;;;;;;16.33;6.88;;;15.70;99.90;;;;;;5095740;28;20543;-80
2023/09/29 03:17:00;;;;;;;20.45;5.72;;;15.70;99.90;;;;;;5094214;28;20437;-79
2023/09/29 03:19:26;;;;;;;17.25;5.65;;;15.70;99.90;;;;;;5095213;28;20067;-79
2023/09/29 03:21:53;;;;;;;18.58;5.57;;;15.70;99.90;;;;;;5094206;28;20131;-80
2023/09/29 03:24:18;;;;;;;21.48;5.78;;;15.70;99.90;;;;;;5093946;28;20044;-80
2023/09/29 03:26:45;;;;;;;20.35;6.55;;;15.70;99.90;;;;;;5095303;28;20040;-80
2023/09/29 03:29:11;;;;;;;15.77;5.28;;;15.70;99.90;;;;;;5094245;28;20044;-80
2023/09/29 03:31:36;;;;;;;18.95;6.10;;;15.60;99.90;;;;;;5094250;28;20561;-80
2023/09/29 03:34:02;;;;;;;18.75;6.45;;;15.70;99.90;;;;;;5093962;28;20097;-79
2023/09/29 03:36:30;;;;;;;21.25;6.57;;;15.70;99.90;;;;;;5095162;28;20083;-79
2023/09/29 03:38:56;;;;;;;22.95;6.95;;;15.70;99.90;;;;;;5093780;28;20075;-80
2023/09/29 03:41:23;;;;;;;23.90;7.75;;;15.70;99.90;;;;;;5093739;28;20079;-80
2023/09/29 03:43:50;;;;;;;23.10;6.95;;;15.70;99.90;;;;;;5095109;28;20101;-80
2023/09/29 03:46:20;;;;;;;21.48;7.07;;;15.70;99.90;;;;;;5094906;28;20209;-80
2023/09/29 03:48:47;;;;;;;23.00;7.43;;;15.70;99.90;;;;;;5093756;28;20048;-80
2023/09/29 03:51:33;;;;;;;22.50;7.72;;;15.70;99.90;;;;;;5094950;28;20060;-79
2023/09/29 03:53:59;;;;;;;23.05;7.13;;;15.70;99.90;;;;;;5093571;28;20039;-80
2023/09/29 03:56:25;;;;;;;19.77;6.90;;;15.70;99.90;;;;;;5094921;28;20040;-79
2023/09/29 03:58:55;;;;;;;25.08;8.00;;;15.70;99.90;;;;;;5094692;28;20488;-80
2023/09/29 04:01:27;;;;;;;22.70;6.85;;;15.70;99.90;;;;;;5093453;28;20052;-79
2023/09/29 04:03:53;;;;;;;18.92;6.70;;;15.80;99.90;;;;;;5093360;28;20043;-79
2023/09/29 04:06:20;;;;;;;24.27;7.00;;;15.80;99.90;;;;;;5093126;28;20048;-79
2023/09/29 04:08:46;;;;;;;19.15;6.50;;;15.80;99.90;;;;;;5093289;28;20122;-80
2023/09/29 04:11:12;;;;;;;16.75;6.85;;;15.80;99.90;;;;;;5094471;28;20414;-80
2023/09/29 04:13:38;;;;;;;20.08;7.07;;;15.90;99.90;;;;;;5094565;28;20586;-80
2023/09/29 04:16:08;;;;;;;20.13;8.38;;;15.90;99.90;;;;;;5093172;28;20048;-79
2023/09/29 04:18:33;;;;;;;24.38;7.18;;;15.90;99.90;;;;;;5094347;28;20084;-80
2023/09/29 04:21:02;;;;;;;18.85;6.35;;;15.90;99.90;;;;;;5094451;28;20105;-80
2023/09/29 04:23:28;;;;;;;20.40;7.03;;;16.00;99.90;;;;;;5094412;28;20044;-80
2023/09/29 04:25:57;;;;;;;17.00;6.13;;;15.90;99.90;;;;;;5094223;28;20050;-80
2023/09/29 04:28:23;;;;;;;20.40;7.13;;;16.00;99.90;;;;;;5093285;28;20044;-80
2023/09/29 04:30:48;;;;;;;22.75;6.78;;;16.00;99.90;;;;;;5091350;28;20040;-79
2023/09/29 04:33:14;;;;;;;23.00;7.68;;;16.00;99.90;;;;;;5074189;28;20131;-80
2023/09/29 04:35:39;;;;;;;22.10;7.13;;;16.00;99.90;;;;;;5073968;28;20048;-79
2023/09/29 04:38:05;;;;;;;27.42;7.00;;;16.00;99.90;;;;;;5073892;28;20120;-79
2023/09/29 04:40:31;;;;;;;23.08;7.82;;;16.00;99.90;;;;;;5072563;28;20369;-80
2023/09/29 04:42:57;;;;;;;19.52;7.22;;;16.00;99.90;;;;;;5073840;28;20041;-80
2023/09/29 04:45:22;;;;;;;16.80;7.07;;;16.00;99.90;;;;;;5073676;28;20047;-79
2023/09/29 04:47:48;;;;;;;19.95;7.00;;;16.00;99.90;;;;;;5073665;28;20036;-80
2023/09/29 04:50:14;;;;;;;27.23;7.82;;;16.10;99.90;;;;;;5073848;28;20082;-79
2023/09/29 04:52:39;;;;;;;23.05;8.13;;;16.10;99.90;;;;;;5073773;28;20040;-79
2023/09/29 04:55:05;;;;;;;19.08;7.60;;;16.10;99.90;;;;;;5073597;28;20045;-80
2023/09/29 04:57:31;;;;;;;24.85;7.25;;;16.10;99.90;;;;;;5073714;28;20040;-79
2023/09/29 04:59:57;;;;;;;20.17;6.93;;;16.10;99.90;;;;;;5072438;28;20265;-80
2023/09/29 05:02:24;;;;;;;26.17;7.53;;;16.10;99.90;;;;;;5073365;28;20044;-79
2023/09/29 05:04:50;;;;;;;20.35;5.88;;;16.10;99.90;;;;;;5072340;28;20072;-81
2023/09/29 05:07:16;;;;;;;20.17;8.15;;;16.20;99.90;;;;;;5073522;28;20080;-80
2023/09/29 05:09:41;;;;;;;20.83;7.40;;;16.20;99.90;;;;;;5073186;28;20041;-80
2023/09/29 05:12:07;;;;;;;23.50;7.50;;;16.10;99.90;;;;;;5073521;28;20450;-80
2023/09/29 05:14:33;;;;;;;20.65;6.57;;;16.10;99.90;;;;;;5073475;28;20125;-80
2023/09/29 05:16:59;;;;;;;23.88;7.80;;;16.10;99.90;;;;;;5073542;28;20041;-80
2023/09/29 05:19:24;;;;;;;21.58;6.57;;;16.00;99.90;;;;;;5071948;28;20049;-80
2023/09/29 05:21:51;;;;;;;22.05;6.82;;;16.00;99.90;;;;;;5073432;28;20037;-79
2023/09/29 05:24:16;;;;;;;22.83;6.90;;;15.90;99.90;;;;;;5073341;28;20400;-79
2023/09/29 05:26:42;;;;;;;19.95;6.55;;;16.00;99.90;;;;;;5073425;28;20396;-80
2023/09/29 05:29:07;;;;;;;25.83;6.95;;;16.00;99.90;;;;;;5073329;28;20049;-79
2023/09/29 05:31:33;;;;;;;20.50;6.50;;;15.90;99.90;;;;;;5073059;28;20053;-80
2023/09/29 05:33:59;;;;;;;20.27;7.22;;;15.90;99.90;;;;;;5071964;28;20540;-80
2023/09/29 05:36:24;;;;;;;19.10;7.03;;;15.90;99.90;;;;;;5073167;28;20043;-80
2023/09/29 05:38:50;;;;;;;18.95;6.75;;;15.90;99.90;;;;;;5073281;28;20080;-80
2023/09/29 05:41:16;;;;;;;26.70;7.45;;;15.90;99.90;;;;;;5071898;28;20083;-80
2023/09/29 05:43:41;;;;;;;23.20;6.90;;;15.90;99.90;;;;;;5072928;28;20048;-81
2023/09/29 05:46:07;;;;;;;12.95;6.80;;;15.90;99.90;;;;;;5071620;28;20048;-80
2023/09/29 05:48:32;;;;;;;21.77;6.57;;;15.80;99.90;;;;;;5073068;28;20040;-81
2023/09/29 05:51:00;;;;;;;21.00;8.05;;;15.90;99.90;;;;;;5072849;28;20032;-80
2023/09/29 05:53:25;;;;;;;20.08;6.97;;;15.90;99.90;;;;;;5071429;28;20133;-80
2023/09/29 05:55:51;;;;;;;21.33;6.93;;;15.90;99.90;;;;;;5072860;28;20119;-81
2023/09/29 05:58:17;;;;;;;24.67;8.07;;;15.90;99.90;;;;;;5071871;28;20048;-81
2023/09/29 06:00:43;;;;;;;21.67;6.95;;;15.90;99.90;;;;;;5071339;28;20495;-80
2023/09/29 06:03:08;;;;;;;21.13;7.20;;;15.90;99.90;;;;;;5070956;28;20047;-81
2023/09/29 06:05:34;;;;;;;20.13;7.97;;;15.90;99.90;;;;;;5072583;28;20051;-80
2023/09/29 06:08:00;;;;;;;23.45;8.00;;;15.90;99.90;;;;;;5072829;28;20040;-81
2023/09/29 06:10:25;;;;;;;21.05;7.47;;;15.90;99.90;;;;;;5072844;28;20040;-80
2023/09/29 06:12:51;;;;;;;24.73;7.43;;;15.90;99.90;;;;;;5072606;28;20044;-80
2023/09/29 06:15:17;;;;;;;20.83;6.97;;;15.90;99.90;;;;;;5071781;28;20056;-81
2023/09/29 06:17:44;;;;;;;25.60;7.18;;;15.90;99.90;;;;;;5072576;28;20395;-80
2023/09/29 06:20:12;;;;;;;21.45;7.78;;;15.90;99.90;;;;;;5073432;28;20119;-80
2023/09/29 06:22:38;;;;;;;27.17;7.30;;;15.90;99.90;;;;;;5075133;28;20059;-79
2023/09/29 06:25:04;;;;;;;21.15;7.05;;;15.90;99.90;;;;;;5076266;28;20044;-80
2023/09/29 06:27:29;;;;;;;29.08;8.18;;;15.90;99.90;;;;;;5076061;28;20391;-80
2023/09/29 06:29:55;;;;;;;19.35;8.98;;;15.90;99.90;;;;;;5076211;28;20051;-79
2023/09/29 06:32:21;;;;;;;18.58;7.32;;;15.90;99.90;;;;;;5076152;28;20050;-80
2023/09/29 06:34:46;;;;;;;21.05;7.75;;;15.90;99.90;;;;;;5075976;28;20115;-80
2023/09/29 06:37:12;;;;;;;23.02;7.43;;;15.90;99.90;;;;;;5074593;28;20048;-80
2023/09/29 06:39:38;;;;;;;22.17;7.70;;;16.00;99.90;;;;;;5075011;28;20075;-80
2023/09/29 06:42:04;;;;;;;19.73;7.55;;;16.00;99.90;;;;;;5075881;28;20071;-80
2023/09/29 06:44:33;;;;;;;17.10;7.70;;;16.00;99.90;;;;;;5074420;28;20045;-80
2023/09/29 06:46:59;;;;;;;24.38;8.20;;;16.00;99.90;;;;;;5074773;28;20048;-80
2023/09/29 06:49:25;;;;;;;22.88;8.43;;;16.10;99.90;;;;;;5075828;28;20396;-79
2023/09/29 06:51:50;;;;;;;28.75;8.30;;;16.10;99.90;;;;;;5074537;28;20067;-79
2023/09/29 06:54:16;;;;;;;17.23;7.70;;;16.10;99.90;;;;;;5075537;28;20052;-80
2023/09/29 06:56:42;;;;;;;21.30;7.45;;;16.20;99.90;;;;;;5074499;28;20480;-79
2023/09/29 06:59:08;;;;;;;22.95;7.65;;;16.20;99.90;;;;;;5075431;28;20059;-79
2023/09/29 07:01:34;;;;;;;23.85;8.23;;;16.20;99.90;;;;;;5074126;28;20058;-78
2023/09/29 07:03:59;;;;;;;19.20;8.02;;;16.20;99.90;;;;;;5075675;28;20044;-78
2023/09/29 07:06:25;;;;;;;22.70;8.60;;;16.20;99.90;;;;;;5075218;28;20055;-78
2023/09/29 07:08:52;;;;;;;22.20;8.00;;;16.20;99.90;;;;;;5075123;28;20047;-78
2023/09/29 07:11:18;;;;;;;19.17;8.27;;;16.30;99.90;;;;;;5075212;28;20487;-78
2023/09/29 07:13:43;;;;;;;22.40;8.45;;;16.30;99.90;;;;;;5073952;28;20047;-77
2023/09/29 07:16:09;;;;;;;17.85;7.97;;;16.40;99.90;;;;;;5073926;28;20049;-77
2023/09/29 07:18:37;;;;;;;19.50;8.55;;;16.40;99.90;;;;;;5073706;28;20060;-78
2023/09/29 07:21:04;;;;;;;19.75;7.97;;;16.40;99.90;;;;;;5074962;28;20381;-78
2023/09/29 07:23:33;;;;;;;18.17;7.50;;;16.50;99.90;;;;;;5073951;28;20459;-78
2023/09/29 07:25:59;;;;;;;22.50;7.93;;;16.50;99.90;;;;;;5073590;28;20057;-78
2023/09/29 07:28:24;;;;;;;23.13;8.13;;;16.50;99.90;;;;;;5073590;28;20105;-78
2023/09/29 07:30:53;;;;;;;16.20;8.13;;;16.60;99.90;;;;;;5074671;28;20047;-78
2023/09/29 07:33:19;;;;;;;17.02;8.02;;;16.60;99.90;;;;;;5076243;28;20036;-77
2023/09/29 07:35:45;;;;;;;20.17;7.47;;;16.60;99.90;;;;;;5083686;28;20040;-78
2023/09/29 07:38:11;;;;;;;16.52;8.25;;;16.70;99.90;;;;;;5074469;28;20097;-78
2023/09/29 07:40:36;;;;;;;20.95;8.10;;;16.70;99.90;;;;;;5074470;28;20480;-77
2023/09/29 07:43:03;;;;;;;16.00;7.50;;;16.70;99.90;;;;;;5074670;28;20549;-77
2023/09/29 07:45:29;;;;;;;22.23;8.23;;;16.80;99.90;;;;;;5073020;28;20057;-77
2023/09/29 07:47:55;;;;;;;19.00;7.80;;;16.80;99.90;;;;;;5073047;28;20052;-76
2023/09/29 07:50:20;;;;;;;17.92;8.32;;;16.90;99.90;;;;;;5074328;28;20589;-77
2023/09/29 07:52:46;;;;;;;21.90;8.57;;;16.90;99.90;;;;;;5072836;28;20040;-77
2023/09/29 07:55:12;;;;;;;21.65;8.30;;;17.00;99.90;;;;;;5074397;28;20476;-77
2023/09/29 07:57:38;;;;;;;17.30;7.53;;;17.00;99.90;;;;;;5074218;28;20040;-77
2023/09/29 08:00:08;;;;;;;19.98;8.18;;;17.10;99.90;;;;;;5072845;28;20041;-77
2023/09/29 08:02:34;;;;;;;14.43;7.80;;;17.20;99.90;;;;;;5072919;28;20056;-77
2023/09/29 08:05:00;;;;;;;16.10;7.63;;;17.20;99.90;;;;;;5072766;28;20048;-77
2023/09/29 08:07:27;;;;;;;16.95;8.35;;;17.30;99.90;;;;;;5073926;28;20070;-77
2023/09/29 08:09:53;;;;;;;18.27;7.68;;;17.30;99.90;;;;;;5074205;28;20043;-78
2023/09/29 08:12:19;;;;;;;16.17;7.55;;;17.30;99.90;;;;;;5073979;28;20449;-77
2023/09/29 08:14:45;;;;;;;15.40;7.47;;;17.40;99.90;;;;;;5073898;28;20476;-77
2023/09/29 08:17:10;;;;;;;17.92;7.57;;;17.40;99.90;;;;;;5072517;28;20449;-76
2023/09/29 08:19:37;;;;;;;14.75;7.00;;;17.50;99.90;;;;;;5072495;28;20059;-76
2023/09/29 08:22:03;;;;;;;15.73;8.05;;;17.50;99.90;;;;;;5071099;28;20060;-77
2023/09/29 08:24:32;;;;;;;16.33;7.50;;;17.60;99.90;;;;;;5072390;28;20049;-76
2023/09/29 08:27:04;;;;;;;14.80;6.90;;;17.60;99.90;;;;;;5072316;28;20055;-76
2023/09/29 08:29:29;;;;;;;16.17;6.78;;;17.70;99.90;;;;;;5072368;28;20037;-76
2023/09/29 08:31:57;;;;;;;19.00;7.00;;;17.80;99.90;;;;;;5072535;28;20052;-76
2023/09/29 08:34:24;;;;;;;15.98;7.10;;;17.80;99.90;;;;;;5073716;28;20101;-76
2023/09/29 08:36:51;;;;;;;13.48;6.80;;;18.00;99.90;;;;;;5073754;28;20056;-77
2023/09/29 08:39:17;;;;;;;19.33;7.35;;;18.00;99.90;;;;;;5073614;28;20094;-76
2023/09/29 08:41:58;;;;;;;17.33;7.53;;;18.00;99.90;;;;;;5073660;28;20044;-75
2023/09/29 08:44:29;;;;;;;19.15;7.32;;;18.10;99.90;;;;;;5072708;28;20045;-76
2023/09/29 08:47:00;;;;;;;13.15;6.57;;;18.10;99.90;;;;;;5071786;28;20579;-76
2023/09/29 08:49:27;;;;;;;13.70;6.90;;;18.10;99.90;;;;;;5073639;28;20124;-76
2023/09/29 08:51:55;;;;;;;16.27;7.68;;;18.20;99.90;;;;;;5073496;28;20064;-75
2023/09/29 08:54:23;;;;;;;14.63;6.97;;;18.20;99.90;;;;;;5072273;28;20044;-76
2023/09/29 08:56:50;;;;;;;18.67;6.95;;;18.30;99.90;;;;;;5073081;28;20119;-76
2023/09/29 08:59:16;;;;;;;15.32;7.30;;;18.20;99.90;;;;;;5073426;28;20049;-75
2023/09/29 09:01:46;;;;;;;15.93;6.43;;;18.20;99.90;;;;;;5072196;28;20519;-76
2023/09/29 09:04:11;;;;;;;17.65;7.80;;;18.20;99.90;;;;;;5073216;28;20040;-76
2023/09/29 09:06:37;;;;;;;18.08;7.85;;;18.30;99.90;;;;;;5084156;28;20054;-76
2023/09/29 09:09:03;;;;;;;16.17;7.55;;;18.40;99.90;;;;;;5091930;28;20045;-77
2023/09/29 09:11:29;;;;;;;19.63;7.63;;;18.40;99.90;;;;;;5093152;28;20131;-77
2023/09/29 09:14:07;;;;;;;17.83;8.40;;;18.30;99.90;;;;;;5093063;28;20056;-77
2023/09/29 09:16:33;;;;;;;19.42;9.07;;;18.50;99.90;;;;;;5093271;28;20487;-77
2023/09/29 09:19:10;;;;;;;19.00;8.85;;;18.50;99.90;;;;;;5093016;28;20051;-77
2023/09/29 09:21:36;;;;;;;22.88;8.57;;;18.60;99.90;;;;;;5093463;28;20048;-76
2023/09/29 09:24:02;;;;;;;19.17;7.70;;;18.70;99.90;;;;;;5093108;28;20120;-76
2023/09/29 09:26:30;;;;;;;18.38;8.90;;;18.80;99.90;;;;;;5093152;28;20131;-75
2023/09/29 09:29:08;;;;;;;18.45;8.43;;;18.90;99.90;;;;;;5091793;28;20438;-76
2023/09/29 09:31:55;;;;;;;15.20;8.13;;;18.90;99.90;;;;;;5093296;28;20127;-77
2023/09/29 09:34:31;;;;;;;17.90;8.00;;;19.10;99.90;;;;;;5093002;28;20048;-76
2023/09/29 09:36:56;;;;;;;19.73;7.53;;;19.20;99.90;;;;;;5092975;28;20051;-76
2023/09/29 09:39:25;;;;;;;20.15;9.27;;;19.20;99.90;;;;;;5093263;28;20041;-77
2023/09/29 09:41:53;;;;;;;16.10;8.55;;;19.20;99.90;;;;;;5091980;28;20391;-77
2023/09/29 09:44:20;;;;;;;21.20;8.20;;;19.30;99.90;;;;;;5092920;28;20047;-76
2023/09/29 09:46:53;;;;;;;15.02;6.60;;;19.30;99.90;;;;;;5093256;28;20127;-75
2023/09/29 09:49:23;;;;;;;16.90;7.10;;;19.40;99.90;;;;;;5092745;28;20546;-76
2023/09/29 09:51:52;;;;;;;18.45;7.25;;;19.50;99.90;;;;;;5092922;28;20059;-75
2023/09/29 09:54:28;;;;;;;13.35;6.65;;;19.50;99.90;;;;;;5092611;28;20226;-75
2023/09/29 09:57:08;;;;;;;15.98;6.57;;;19.60;99.90;;;;;;5096905;28;20096;-77
2023/09/29 09:59:39;;;;;;;11.73;6.22;;;19.80;99.90;;;;;;5096626;28;20441;-77
2023/09/29 10:02:07;;;;;;;10.77;5.55;;;19.80;99.90;;;;;;5096934;28;20113;-76
2023/09/29 10:04:38;;;;;;;13.05;5.45;;;19.90;99.90;;;;;;5095296;28;20056;-75
2023/09/29 10:07:04;;;;;;;10.85;6.03;;;20.00;99.90;;;;;;5081321;28;20557;-75
2023/09/29 10:09:42;;;;;;;14.57;5.72;;;20.10;99.90;;;;;;5083905;28;20048;-76
2023/09/29 10:12:09;;;;;;;10.85;5.13;;;20.10;99.90;;;;;;5074787;28;20488;-77
2023/09/29 10:14:42;;;;;;;12.07;5.10;;;20.10;99.90;;;;;;5076353;28;20036;-78
2023/09/29 10:17:08;;;;;;;12.30;5.90;;;20.20;99.90;;;;;;5066423;28;20101;-76
2023/09/29 10:19:37;;;;;;;12.25;6.25;;;20.30;99.90;;;;;;5061114;28;20189;-75
2023/09/29 10:22:04;;;;;;;9.77;4.97;;;20.30;99.90;;;;;;5073071;28;20044;-75
2023/09/29 10:24:30;;;;;;;9.05;5.35;;;20.20;99.90;;;;;;5081760;28;20044;-75
2023/09/29 10:27:03;;;;;;;12.25;5.43;;;20.10;99.90;;;;;;5074342;28;20052;-76
2023/09/29 10:29:30;;;;;;;13.73;5.22;;;20.00;99.90;;;;;;5075412;28;20507;-75
2023/09/29 10:32:10;;;;;;;9.65;5.32;;;20.00;99.90;;;;;;5074260;28;20122;-76
2023/09/29 10:34:37;;;;;;;13.05;5.75;;;19.90;99.90;;;;;;5075109;28;20123;-75
2023/09/29 10:37:03;;;;;;;10.75;5.15;;;19.90;99.90;;;;;;5090831;28;20059;-76
2023/09/29 10:39:29;;;;;;;12.18;5.82;;;19.80;99.90;;;;;;5087262;28;20442;-75
2023/09/29 10:41:59;;;;;;;12.65;5.45;;;19.80;99.90;;;;;;5095696;28;20126;-76
2023/09/29 10:44:28;;;;;;;10.60;5.75;;;19.90;99.90;;;;;;5095359;28;20490;-75
2023/09/29 10:46:53;;;;;;;11.98;6.07;;;19.90;99.90;;;;;;5093742;28;20055;-75
2023/09/29 10:49:20;;;;;;;21.35;7.22;;;19.80;99.90;;;;;;5085410;28;20036;-76
2023/09/29 10:51:46;;;;;;;11.57;6.13;;;19.80;99.90;;;;;;5075450;28;20040;-77
2023/09/29 10:54:12;;;;;;;17.23;6.25;;;19.80;99.90;;;;;;5074188;28;20056;-76
2023/09/29 10:56:39;;;;;;;16.83;6.40;;;19.80;99.90;;;;;;5073992;28;20048;-75
2023/09/29 10:59:09;;;;;;;13.57;6.05;;;19.80;99.90;;;;;;5075338;28;20048;-76
2023/09/29 11:01:35;;;;;;;11.10;5.93;;;19.70;99.90;;;;;;5075217;28;20044;-76
2023/09/29 11:04:03;;;;;;;14.85;6.05;;;19.70;99.90;;;;;;5073939;28;20057;-76
2023/09/29 11:06:29;;;;;;;11.77;6.45;;;19.60;99.90;;;;;;5072974;28;20119;-78
2023/09/29 11:08:59;;;;;;;13.95;5.95;;;19.60;99.90;;;;;;5073781;28;20396;-77
2023/09/29 11:11:26;;;;;;;17.20;6.25;;;19.50;99.90;;;;;;5075265;28;20430;-77
2023/09/29 11:13:56;;;;;;;14.43;6.32;;;19.50;99.90;;;;;;5074132;28;20051;-77
2023/09/29 11:16:24;;;;;;;11.25;6.30;;;19.50;99.90;;;;;;5074921;28;20392;-77
2023/09/29 11:18:51;;;;;;;10.70;4.85;;;19.40;99.90;;;;;;5074796;28;20053;-77
2023/09/29 11:21:19;;;;;;;5.07;2.58;;;19.40;99.90;;;;;;5073884;28;20059;-77
2023/09/29 11:23:47;;;;;;;5.25;1.25;;;19.20;99.90;;;;;;5079477;28;20399;-77
2023/09/29 11:26:14;;;;;;;8.15;1.00;;;19.20;99.90;;;;;;5094959;28;20048;-77
2023/09/29 11:28:51;;;;;;;8.60;1.20;;;19.10;99.90;;;;;;5093829;28;20537;-78
2023/09/29 11:31:18;;;;;;;9.18;1.55;;;19.00;99.90;;;;;;5094105;28;20070;-77
2023/09/29 11:33:47;;;;;;;9.40;1.60;;;19.00;99.90;;;;;;5094889;28;20048;-78
2023/09/29 11:36:23;;;;;;;7.00;1.52;;;19.00;99.90;;;;;;5093903;28;20047;-77
2023/09/29 11:38:50;;;;;;;7.70;1.27;;;18.90;99.90;;;;;;5093511;28;20503;-78
2023/09/29 11:41:17;;;;;;;5.43;1.50;;;18.90;99.90;;;;;;5094706;28;20394;-78
2023/09/29 11:43:44;;;;;;;9.57;1.70;;;18.90;99.90;;;;;;5094992;28;20096;-78
2023/09/29 11:46:10;;;;;;;7.20;1.13;;;18.90;99.90;;;;;;5094504;28;20487;-78
2023/09/29 11:48:37;;;;;;;5.13;1.50;;;18.90;99.90;;;;;;5094879;28;20040;-77
2023/09/29 11:51:03;;;;;;;8.77;1.77;;;18.80;99.90;;;;;;5094679;28;20040;-78
2023/09/29 11:53:30;;;;;;;5.85;1.48;;;18.80;99.90;;;;;;5093522;28;20070;-78
2023/09/29 11:55:56;;;;;;;8.98;1.70;;;18.70;99.90;;;;;;5093452;28;20064;-78
2023/09/29 11:58:24;;;;;;;8.15;1.70;;;18.60;99.90;;;;;;5093089;28;20048;-78
2023/09/29 12:00:51;;;;;;;11.45;1.95;;;18.60;99.90;;;;;;5093370;28;20098;-78
2023/09/29 12:03:17;;;;;;;6.68;1.58;;;18.60;99.90;;;;;;5093289;28;20047;-80
2023/09/29 12:05:48;;;;;;;12.25;1.80;;;18.60;99.90;;;;;;5094451;28;20052;-81
2023/09/29 12:08:14;;;;;;;10.30;1.35;;;18.50;99.90;;;;;;5093030;28;20075;-81
2023/09/29 12:10:40;;;;;;;10.50;1.52;;;18.50;99.90;;;;;;5094233;28;20137;-81
2023/09/29 12:13:05;;;;;;;9.52;2.38;;;18.50;99.90;;;;;;5092207;28;20051;-80
2023/09/29 12:15:32;;;;;;;8.55;1.95;;;18.40;99.90;;;;;;5092555;28;20056;-81
2023/09/29 12:17:57;;;;;;;11.27;2.20;;;18.50;99.90;;;;;;5090317;28;20119;-81
2023/09/29 12:20:24;;;;;;;9.15;1.58;;;18.40;99.90;;;;;;5094010;28;20174;-80
2023/09/29 12:22:51;;;;;;;9.80;2.08;;;18.30;99.90;;;;;;5092494;28;20093;-79
2023/09/29 12:25:16;;;;;;;7.88;1.20;;;18.30;99.90;;;;;;5094128;28;20160;-80
2023/09/29 12:27:43;;;;;;;8.43;1.15;;;18.20;99.90;;;;;;5092604;28;20502;-81
2023/09/29 12:30:12;;;;;;;9.88;1.13;;;18.10;99.90;;;;;;5092594;28;20101;-79
2023/09/29 12:32:39;;;;;;;6.50;1.10;;;17.90;99.90;;;;;;5081639;28;20077;-79
2023/09/29 12:35:06;;;;;;;8.55;1.20;;;17.80;99.90;;;;;;5073955;28;20044;-79
2023/09/29 12:37:32;;;;;;;9.20;1.55;;;17.80;99.90;;;;;;5074004;28;20054;-79